Time;durP1;ratioP1;P1;durP2;ratioP2;P2;SDS_P1;SDS_P2;PMS_P1;PMS_P2;Temp;Humidity;BMP_temperature;BMP_pressure;BME280_temperature;BME280_humidity;BME280_pressure;Samples;Min_cycle;Max_cycle;Signal;HPM_P1;HPM_P2
2022/01/09 00:00:20;;;;;;;;;;;;;;;-144.99;100.00;52680.47;4933198;28;20383;-70
2022/01/09 00:02:47;;;;;;;;;;;;;;;-144.99;100.00;52717.16;4927803;28;19931;-67
2022/01/09 00:05:14;;;;;;;;;;;;;;;-144.99;100.00;52739.56;4928336;28;19934;-69
2022/01/09 00:07:41;;;;;;;;;;;;;;;-144.99;100.00;52700.84;4923522;29;19937;-66
2022/01/09 00:10:08;;;;;;;;;;;;;;;-144.99;100.00;52725.31;4958771;28;19976;-67
2022/01/09 00:12:35;;;;;;;;;;;;;;;-144.99;100.00;52686.59;4923615;28;19931;-66
2022/01/09 00:15:01;;;;;;;;;;;;;;;-144.99;100.00;52692.69;4588710;28;9999810;-67
2022/01/09 00:17:27;;;;;;;;;;;;;;;-144.99;100.00;52676.38;4930586;28;20356;-66
2022/01/09 00:19:54;;;;;;;;;;;;;;;-144.99;100.00;52704.94;4937617;28;19980;-66
2022/01/09 00:22:31;;;;;;;;;;;;;;;-144.99;100.00;52670.28;4933369;28;19938;-66
2022/01/09 00:24:57;;;;;;;;;;;;;;;-144.99;100.00;52696.78;4933143;28;19963;-67
2022/01/09 00:27:23;;;;;;;;;;;;;;;-144.99;100.00;52684.53;4928639;28;19934;-65
2022/01/09 00:29:50;;;;;;;;;;;;;;;-144.99;100.00;52688.63;4926938;28;20323;-66
2022/01/09 00:32:16;;;;;;;;;;;;;;;-144.99;100.00;52684.53;4939887;28;19964;-66
2022/01/09 00:34:42;;;;;;;;;;;;;;;-144.99;100.00;52706.97;4942313;28;19934;-66
2022/01/09 00:37:09;;;;;;;;;;;;;;;-144.99;100.00;52692.69;4933193;28;19931;-69
2022/01/09 00:39:36;;;;;;;;;;;;;;;-144.99;100.00;52680.47;4963351;28;19937;-70
2022/01/09 00:42:03;;;;;;;;;;;;;;;-144.99;100.00;52696.78;4965678;28;19961;-67
2022/01/09 00:44:30;;;;;;;;;;;;;;;-144.99;100.00;52704.94;4952670;28;19941;-68
2022/01/09 00:47:00;;;;;;;;;;;;;;;-144.99;100.00;52682.50;4949332;28;19927;-67
2022/01/09 00:49:26;;;;;;;;;;;;;;;-144.99;100.00;52717.16;4951549;28;19950;-69
2022/01/09 00:51:52;;;;;;;;;;;;;;;-144.99;100.00;52686.59;4953444;28;19994;-68
2022/01/09 00:54:19;;;;;;;;;;;;;;;-144.99;100.00;52696.78;4944558;28;19927;-69
2022/01/09 00:56:47;;;;;;;;;;;;;;;-144.99;100.00;52666.19;4947190;28;19926;-69
2022/01/09 00:59:13;;;;;;;;;;;;;;;-144.99;100.00;52721.22;4947082;28;19935;-67
2022/01/09 01:01:39;;;;;;;;;;;;;;;-144.99;100.00;52656.00;4942032;28;19934;-67
2022/01/09 01:04:06;;;;;;;;;;;;;;;-144.99;100.00;52700.84;4949400;28;19929;-68
2022/01/09 01:06:32;;;;;;;;;;;;;;;-144.99;100.00;52696.78;4932221;28;20001;-67
2022/01/09 01:08:58;;;;;;;;;;;;;;;-144.99;100.00;52700.84;4927628;28;19927;-72
2022/01/09 01:11:25;;;;;;;;;;;;;;;-144.99;100.00;52688.63;4933593;28;19927;-71
2022/01/09 01:13:52;;;;;;;;;;;;;;;-144.99;100.00;52692.69;4934084;28;20019;-72
2022/01/09 01:16:19;;;;;;;;;;;;;;;-144.99;100.00;52692.69;4934310;28;19927;-73
2022/01/09 01:18:45;;;;;;;;;;;;;;;-144.99;100.00;52676.38;4922498;28;19937;-70
2022/01/09 01:21:12;;;;;;;;;;;;;;;-144.99;100.00;52725.31;4935205;28;19989;-70
2022/01/09 01:23:39;;;;;;;;;;;;;;;-144.99;100.00;52700.84;4936020;28;19934;-70
2022/01/09 01:26:05;;;;;;;;;;;;;;;-144.99;100.00;52713.09;4933549;28;19935;-69
2022/01/09 01:28:32;;;;;;;;;;;;;;;-144.99;100.00;52725.31;4935425;28;19935;-71
2022/01/09 01:31:00;;;;;;;;;;;;;;;-144.99;100.00;52709.00;4943956;28;19933;-70
2022/01/09 01:33:27;;;;;;;;;;;;;;;-144.99;100.00;52653.97;4941319;28;19935;-68
2022/01/09 01:35:53;;;;;;;;;;;;;;;-144.99;100.00;52700.84;4941759;28;19926;-68
2022/01/09 01:38:19;;;;;;;;;;;;;;;-144.99;100.00;52717.16;4925974;28;20503;-64
2022/01/09 01:40:46;;;;;;;;;;;;;;;-144.99;100.00;52700.84;4936274;28;19930;-64
2022/01/09 01:43:12;;;;;;;;;;;;;;;-144.99;100.00;52692.69;4939026;29;19986;-67
2022/01/09 01:45:38;;;;;;;;;;;;;;;-144.99;100.00;52690.66;4944448;28;19927;-63
2022/01/09 01:48:07;;;;;;;;;;;;;;;-144.99;100.00;52660.09;4939301;29;19927;-64
2022/01/09 01:50:36;;;;;;;;;;;;;;;-144.99;100.00;52660.09;4937705;28;19942;-63
2022/01/09 01:53:03;;;;;;;;;;;;;;;-144.99;100.00;52702.88;4932807;28;20351;-63
2022/01/09 01:55:35;;;;;;;;;;;;;;;-144.99;100.00;52704.94;4929710;29;19934;-63
2022/01/09 01:58:02;;;;;;;;;;;;;;;-144.99;100.00;52704.94;4931476;28;19931;-64
2022/01/09 02:00:28;;;;;;;;;;;;;;;-144.99;100.00;52664.16;4943032;28;19931;-65
2022/01/09 02:02:55;;;;;;;;;;;;;;;-144.99;100.00;52694.72;4930497;28;20280;-65
2022/01/09 02:05:23;;;;;;;;;;;;;;;-144.99;100.00;52676.38;4932565;29;20398;-65
2022/01/09 02:07:51;;;;;;;;;;;;;;;-144.99;100.00;52700.84;4955989;28;19927;-65
2022/01/09 02:10:18;;;;;;;;;;;;;;;-144.99;100.00;52688.63;4966287;28;19929;-65
2022/01/09 02:12:44;;;;;;;;;;;;;;;-144.99;100.00;52717.16;4943189;28;20376;-63
2022/01/09 02:15:26;;;;;;;;;;;;;;;-144.99;100.00;52700.84;4930769;29;19927;-70
2022/01/09 02:17:53;;;;;;;;;;;;;;;-144.99;100.00;52704.94;4931418;29;19937;-69
2022/01/09 02:20:20;;;;;;;;;;;;;;;-144.99;100.00;52668.22;4951198;28;19932;-69
2022/01/09 02:22:47;;;;;;;;;;;;;;;-144.99;100.00;52725.31;4952568;28;20191;-69
2022/01/09 02:25:14;;;;;;;;;;;;;;;-144.99;100.00;52688.63;4930969;28;19933;-68
2022/01/09 02:27:40;;;;;;;;;;;;;;;-144.99;100.00;52647.84;4963654;28;19931;-68
2022/01/09 02:30:07;;;;;;;;;;;;;;;-144.99;100.00;52721.22;4930772;28;19966;-69
2022/01/09 02:32:33;;;;;;;;;;;;;;;-144.99;100.00;52733.47;4929093;28;20380;-63
2022/01/09 02:35:00;;;;;;;;;;;;;;;-144.99;100.00;52684.53;4952028;28;19950;-64
2022/01/09 02:37:27;;;;;;;;;;;;;;;-144.99;100.00;52682.50;4963368;28;20401;-64
2022/01/09 02:39:54;;;;;;;;;;;;;;;-144.99;100.00;52702.88;4933677;28;19933;-63
2022/01/09 02:42:23;;;;;;;;;;;;;;;-144.99;100.00;52676.38;4955765;23;19939;-57
2022/01/09 02:44:49;;;;;;;;;;;;;;;-144.99;100.00;52717.16;4974037;28;19930;-57
2022/01/09 02:47:16;;;;;;;;;;;;;;;-144.99;100.00;52702.88;4976291;28;20021;-56
2022/01/09 02:49:47;;;;;;;;;;;;;;;-144.99;100.00;52682.50;4969504;28;20051;-57
2022/01/09 02:52:27;;;;;;;;;;;;;;;-144.99;100.00;52717.16;4968991;28;19926;-57
2022/01/09 02:55:12;;;;;;;;;;;;;;;-144.99;100.00;52676.38;4969483;28;19949;-56
2022/01/09 02:57:39;;;;;;;;;;;;;;;-144.99;100.00;52717.16;5004777;28;20024;-56
2022/01/09 03:00:07;;;;;;;;;;;;;;;-144.99;100.00;52715.13;5012545;28;19968;-56
2022/01/09 03:02:33;;;;;;;;;;;;;;;-144.99;100.00;52664.16;4969560;28;19930;-57
2022/01/09 03:04:59;;;;;;;;;;;;;;;-144.99;100.00;52702.88;4969394;28;19942;-57
2022/01/09 03:07:26;;;;;;;;;;;;;;;-144.99;100.00;52700.84;4969460;28;19933;-55
2022/01/09 03:09:52;;;;;;;;;;;;;;;-144.99;100.00;52692.69;4968606;28;19926;-55
2022/01/09 03:12:20;;;;;;;;;;;;;;;-144.99;100.00;52721.22;4968946;28;19926;-59
2022/01/09 03:14:46;;;;;;;;;;;;;;;-144.99;100.00;52704.94;4968515;28;19937;-58
2022/01/09 03:17:13;;;;;;;;;;;;;;;-144.99;100.00;52713.09;4968667;28;20385;-58
2022/01/09 03:19:39;;;;;;;;;;;;;;;-144.99;100.00;52688.63;4992619;28;19924;-59
2022/01/09 03:22:06;;;;;;;;;;;;;;;-144.99;100.00;52692.69;4968003;28;19977;-57
2022/01/09 03:24:32;;;;;;;;;;;;;;;-144.99;100.00;52660.09;4965853;28;19926;-57
2022/01/09 03:26:59;;;;;;;;;;;;;;;-144.99;100.00;52731.44;4966989;28;19938;-57
2022/01/09 03:29:26;;;;;;;;;;;;;;;-144.99;100.00;52700.84;4965719;28;20461;-57
2022/01/09 03:31:53;;;;;;;;;;;;;;;-144.99;100.00;52688.63;4964151;28;20318;-55
2022/01/09 03:34:19;;;;;;;;;;;;;;;-144.99;100.00;52696.78;4965672;28;20021;-55
2022/01/09 03:36:45;;;;;;;;;;;;;;;-144.99;100.00;52737.53;4966122;28;19926;-58
2022/01/09 03:39:12;;;;;;;;;;;;;;;-144.99;100.00;52737.53;4965553;28;19926;-56
2022/01/09 03:41:38;;;;;;;;;;;;;;;-144.99;100.00;52668.22;4965981;28;19937;-58
2022/01/09 03:44:05;;;;;;;;;;;;;;;-144.99;100.00;52688.63;4961437;28;20295;-59
2022/01/09 03:46:32;;;;;;;;;;;;;;;-144.99;100.00;52717.16;4964608;28;19930;-57
2022/01/09 03:48:59;;;;;;;;;;;;;;;-144.99;100.00;52711.03;4964578;28;20341;-57
2022/01/09 03:51:32;;;;;;;;;;;;;;;-144.99;100.00;52700.84;4966449;28;20193;-57
2022/01/09 03:53:58;;;;;;;;;;;;;;;-144.99;100.00;52668.22;4965785;28;19934;-59
2022/01/09 03:56:25;;;;;;;;;;;;;;;-144.99;100.00;52717.16;4982615;28;19925;-59
2022/01/09 03:58:51;;;;;;;;;;;;;;;-144.99;100.00;52709.00;4965415;28;19930;-59
2022/01/09 04:01:17;;;;;;;;;;;;;;;-144.99;100.00;52709.00;4965871;28;19926;-58
2022/01/09 04:03:45;;;;;;;;;;;;;;;-144.99;100.00;52692.69;4963910;28;19941;-58
2022/01/09 04:06:11;;;;;;;;;;;;;;;-144.99;100.00;52696.78;4966862;28;19973;-59
2022/01/09 04:08:38;;;;;;;;;;;;;;;-144.99;100.00;52700.84;4965787;28;19957;-59
2022/01/09 04:11:05;;;;;;;;;;;;;;;-144.99;100.00;52717.16;4964517;28;20678;-59
2022/01/09 04:13:32;;;;;;;;;;;;;;;-144.99;100.00;52696.78;4965075;28;19934;-58
2022/01/09 04:15:58;;;;;;;;;;;;;;;-144.99;100.00;52725.31;4965498;28;19926;-58
2022/01/09 04:18:25;;;;;;;;;;;;;;;-144.99;100.00;52713.09;4965492;28;19926;-59
2022/01/09 04:20:53;;;;;;;;;;;;;;;-144.99;100.00;52696.78;4965786;28;19937;-58
2022/01/09 04:23:21;;;;;;;;;;;;;;;-144.99;100.00;52721.22;4965457;28;19930;-59
2022/01/09 04:25:48;;;;;;;;;;;;;;;-144.99;100.00;52668.22;4965336;28;20291;-59
2022/01/09 04:28:15;;;;;;;;;;;;;;;-144.99;100.00;52680.47;4962908;28;19937;-59
2022/01/09 04:30:41;;;;;;;;;;;;;;;-144.99;100.00;52696.78;4963958;28;19930;-58
2022/01/09 04:33:08;;;;;;;;;;;;;;;-144.99;100.00;52725.31;4964995;28;20383;-58
2022/01/09 04:35:35;;;;;;;;;;;;;;;-144.99;100.00;52656.00;4963400;28;19933;-58
2022/01/09 04:38:03;;;;;;;;;;;;;;;-144.99;100.00;52713.09;4965204;28;19953;-59
2022/01/09 04:40:29;;;;;;;;;;;;;;;-144.99;100.00;52656.00;4964646;28;19930;-63
2022/01/09 04:42:58;;;;;;;;;;;;;;;-144.99;100.00;52660.09;4966572;28;19926;-59
2022/01/09 04:45:27;;;;;;;;;;;;;;;-144.99;100.00;52717.16;4965307;28;19950;-62
2022/01/09 04:47:55;;;;;;;;;;;;;;;-144.99;100.00;52741.63;4967530;28;20040;-61
2022/01/09 04:50:24;;;;;;;;;;;;;;;-144.99;100.00;52656.00;4962284;28;19937;-63
2022/01/09 04:52:53;;;;;;;;;;;;;;;-144.99;100.00;52704.94;4963137;28;19926;-58
2022/01/09 04:55:22;;;;;;;;;;;;;;;-144.99;100.00;52682.50;4963956;28;20043;-56
2022/01/09 04:57:48;;;;;;;;;;;;;;;-144.99;100.00;52741.63;4964956;28;19926;-59
2022/01/09 05:00:15;;;;;;;;;;;;;;;-144.99;100.00;52680.47;4963106;28;19932;-58
2022/01/09 05:02:41;;;;;;;;;;;;;;;-144.99;100.00;52706.97;4965933;28;20318;-60
2022/01/09 05:05:09;;;;;;;;;;;;;;;-144.99;100.00;52688.63;4965427;28;19934;-59
2022/01/09 05:07:35;;;;;;;;;;;;;;;-144.99;100.00;52704.94;4965078;28;20017;-58
2022/01/09 05:10:02;;;;;;;;;;;;;;;-144.99;100.00;52684.53;4963388;28;19934;-60
2022/01/09 05:12:30;;;;;;;;;;;;;;;-144.99;100.00;52711.03;4965602;28;19934;-62
2022/01/09 05:14:56;;;;;;;;;;;;;;;-144.99;100.00;52676.38;4965672;28;19927;-60
2022/01/09 05:17:23;;;;;;;;;;;;;;;-144.99;100.00;52653.97;4964809;28;19933;-62
2022/01/09 05:19:51;;;;;;;;;;;;;;;-144.99;100.00;52696.78;4964215;28;19934;-64
2022/01/09 05:22:18;;;;;;;;;;;;;;;-144.99;100.00;52694.72;4962692;28;19950;-62
2022/01/09 05:24:44;;;;;;;;;;;;;;;-144.99;100.00;52680.47;4979778;28;19926;-58
2022/01/09 05:27:10;;;;;;;;;;;;;;;-144.99;100.00;52717.16;4972173;28;20486;-58
2022/01/09 05:29:38;;;;;;;;;;;;;;;-144.99;100.00;52700.84;4960574;28;20347;-58
2022/01/09 05:32:05;;;;;;;;;;;;;;;-144.99;100.00;52709.00;4963995;28;19930;-59
2022/01/09 05:34:31;;;;;;;;;;;;;;;-144.99;100.00;52692.69;4959614;28;19930;-59
2022/01/09 05:36:58;;;;;;;;;;;;;;;-144.99;100.00;52706.97;4965510;28;19930;-57
2022/01/09 05:39:24;;;;;;;;;;;;;;;-144.99;100.00;52709.00;4967210;28;19926;-57
2022/01/09 05:41:51;;;;;;;;;;;;;;;-144.99;100.00;52700.84;4967899;28;20498;-58
2022/01/09 05:44:18;;;;;;;;;;;;;;;-144.99;100.00;52674.34;4967754;28;20373;-61
2022/01/09 05:46:46;;;;;;;;;;;;;;;-144.99;100.00;52704.94;4959434;28;19980;-61
2022/01/09 05:49:13;;;;;;;;;;;;;;;-144.99;100.00;52700.84;4967224;28;19930;-61
2022/01/09 05:51:39;;;;;;;;;;;;;;;-144.99;100.00;52680.47;4967552;28;20359;-59
2022/01/09 05:54:06;;;;;;;;;;;;;;;-144.99;100.00;52692.69;4966441;28;19926;-58
2022/01/09 05:56:32;;;;;;;;;;;;;;;-144.99;100.00;52704.94;4962846;28;19933;-58
2022/01/09 05:58:58;;;;;;;;;;;;;;;-144.99;100.00;52676.38;4983856;28;19956;-55
2022/01/09 06:01:25;;;;;;;;;;;;;;;-144.99;100.00;52717.16;4967209;28;20372;-57
2022/01/09 06:03:53;;;;;;;;;;;;;;;-144.99;100.00;52672.31;4966025;28;19926;-57
2022/01/09 06:06:19;;;;;;;;;;;;;;;-144.99;100.00;52692.69;4967386;28;19949;-58
2022/01/09 06:08:46;;;;;;;;;;;;;;;-144.99;100.00;52700.84;4967031;28;19934;-57
2022/01/09 06:11:12;;;;;;;;;;;;;;;-144.99;100.00;52725.31;4961967;28;19949;-56
2022/01/09 06:13:39;;;;;;;;;;;;;;;-144.99;100.00;52688.63;4967765;28;19958;-59
2022/01/09 06:16:05;;;;;;;;;;;;;;;-144.99;100.00;52709.00;4966346;28;19930;-58
2022/01/09 06:18:32;;;;;;;;;;;;;;;-144.99;100.00;52672.31;4966537;28;20268;-59
2022/01/09 06:20:59;;;;;;;;;;;;;;;-144.99;100.00;52725.31;4976957;28;19926;-59
2022/01/09 06:23:26;;;;;;;;;;;;;;;-144.99;100.00;52704.94;4968393;28;19933;-61
2022/01/09 06:25:52;;;;;;;;;;;;;;;-144.99;100.00;52704.94;4968740;28;19930;-63
2022/01/09 06:28:19;;;;;;;;;;;;;;;-144.99;100.00;52704.94;4963927;28;19932;-62
2022/01/09 06:30:45;;;;;;;;;;;;;;;-144.99;100.00;52688.63;4966639;28;19934;-61
2022/01/09 06:33:12;;;;;;;;;;;;;;;-144.99;100.00;52729.38;4964698;28;19930;-62
2022/01/09 06:35:39;;;;;;;;;;;;;;;-144.99;100.00;52700.84;4971521;28;19926;-61
2022/01/09 06:38:07;;;;;;;;;;;;;;;-144.99;100.00;52676.38;4963063;28;19948;-58
2022/01/09 06:40:34;;;;;;;;;;;;;;;-144.99;100.00;52725.31;4964954;28;20290;-59
2022/01/09 06:43:01;;;;;;;;;;;;;;;-144.99;100.00;52727.34;4964523;28;19938;-58
2022/01/09 06:45:27;;;;;;;;;;;;;;;-144.99;100.00;52668.22;4965840;28;19926;-59
2022/01/09 06:47:54;;;;;;;;;;;;;;;-144.99;100.00;52721.22;4959236;28;19926;-60
2022/01/09 06:50:21;;;;;;;;;;;;;;;-144.99;100.00;52704.94;4967026;28;20153;-60
2022/01/09 06:52:47;;;;;;;;;;;;;;;-144.99;100.00;52698.81;4964924;28;19926;-61
2022/01/09 06:55:15;;;;;;;;;;;;;;;-144.99;100.00;52704.94;4962869;28;19933;-61
2022/01/09 06:57:42;;;;;;;;;;;;;;;-144.99;100.00;52709.00;4963774;28;20398;-61
2022/01/09 07:00:09;;;;;;;;;;;;;;;-144.99;100.00;52692.69;4964411;28;20362;-60
2022/01/09 07:02:36;;;;;;;;;;;;;;;-144.99;100.00;52717.16;4965966;28;19946;-62
2022/01/09 07:05:02;;;;;;;;;;;;;;;-144.99;100.00;52713.09;4965490;28;19934;-60
2022/01/09 07:07:28;;;;;;;;;;;;;;;-144.99;100.00;52713.09;4965573;28;19926;-61
2022/01/09 07:09:55;;;;;;;;;;;;;;;-144.99;100.00;52717.16;4965247;28;20322;-60
2022/01/09 07:12:23;;;;;;;;;;;;;;;-144.99;100.00;52704.94;4964658;28;19930;-59
2022/01/09 07:14:49;;;;;;;;;;;;;;;-144.99;100.00;52676.38;4964473;28;20473;-59
2022/01/09 07:17:15;;;;;;;;;;;;;;;-144.99;100.00;52717.16;4958646;28;19957;-59
2022/01/09 07:19:42;;;;;;;;;;;;;;;-144.99;100.00;52717.16;4965099;28;19933;-60
2022/01/09 07:22:08;;;;;;;;;;;;;;;-144.99;100.00;52684.53;4955186;28;20279;-60
2022/01/09 07:24:35;;;;;;;;;;;;;;;-144.99;100.00;52672.31;4967194;28;20375;-60
2022/01/09 07:27:01;;;;;;;;;;;;;;;-144.99;100.00;52709.00;5011904;28;19933;-59
2022/01/09 07:29:29;;;;;;;;;;;;;;;-144.99;100.00;52696.78;4968094;28;19930;-59
2022/01/09 07:31:55;;;;;;;;;;;;;;;-144.99;100.00;52709.00;4968639;28;19937;-59
2022/01/09 07:34:22;;;;;;;;;;;;;;;-144.99;100.00;52704.94;4990742;28;19934;-61
2022/01/09 07:36:48;;;;;;;;;;;;;;;-144.99;100.00;52682.50;4965340;28;19926;-61
2022/01/09 07:39:15;;;;;;;;;;;;;;;-144.99;100.00;52668.22;4965971;28;19926;-60
2022/01/09 07:41:42;;;;;;;;;;;;;;;-144.99;100.00;52721.22;4966043;28;19934;-60
2022/01/09 07:44:08;;;;;;;;;;;;;;;-144.99;100.00;52725.31;4967107;28;19970;-60
2022/01/09 07:46:36;;;;;;;;;;;;;;;-144.99;100.00;52719.19;4968445;28;20151;-59
2022/01/09 07:49:02;;;;;;;;;;;;;;;-144.99;100.00;52680.47;4963618;28;19960;-59
2022/01/09 07:51:29;;;;;;;;;;;;;;;-144.99;100.00;52709.00;4961163;28;19930;-61
2022/01/09 07:53:55;;;;;;;;;;;;;;;-144.99;100.00;52702.88;4963862;28;19934;-61
2022/01/09 07:56:21;;;;;;;;;;;;;;;-144.99;100.00;52717.16;4964489;28;19933;-61
2022/01/09 07:58:48;;;;;;;;;;;;;;;-144.99;100.00;52717.16;4964852;28;19930;-60
2022/01/09 08:01:14;;;;;;;;;;;;;;;-144.99;100.00;52692.69;4966052;28;19938;-58
2022/01/09 08:03:42;;;;;;;;;;;;;;;-144.99;100.00;52680.47;4964194;28;19926;-62
2022/01/09 08:06:08;;;;;;;;;;;;;;;-144.99;100.00;52709.00;4965062;28;19970;-61
2022/01/09 08:08:35;;;;;;;;;;;;;;;-144.99;100.00;52684.53;4964766;28;19926;-60
2022/01/09 08:11:01;;;;;;;;;;;;;;;-144.99;100.00;52696.78;4964698;28;19949;-61
2022/01/09 08:13:27;;;;;;;;;;;;;;;-144.99;100.00;52678.44;4964004;28;19935;-61
2022/01/09 08:15:54;;;;;;;;;;;;;;;-144.99;100.00;52680.47;4964797;28;20318;-61
2022/01/09 08:18:20;;;;;;;;;;;;;;;-144.99;100.00;52688.63;4965887;28;19937;-59
2022/01/09 08:20:48;;;;;;;;;;;;;;;-144.99;100.00;52725.31;4975419;28;20125;-59
2022/01/09 08:23:17;;;;;;;;;;;;;;;-144.99;100.00;52709.00;4963954;28;19926;-60
2022/01/09 08:25:43;;;;;;;;;;;;;;;-144.99;100.00;52668.22;4981900;28;19960;-63
2022/01/09 08:28:10;;;;;;;;;;;;;;;-144.99;100.00;52684.53;4965255;28;19933;-65
2022/01/09 08:30:37;;;;;;;;;;;;;;;-144.99;100.00;52656.00;4964684;28;19937;-61
2022/01/09 08:33:04;;;;;;;;;;;;;;;-144.99;100.00;52709.00;4963504;28;19934;-62
2022/01/09 08:35:30;;;;;;;;;;;;;;;-144.99;100.00;52704.94;4964611;28;19937;-61
2022/01/09 08:37:58;;;;;;;;;;;;;;;-144.99;100.00;52706.97;4963107;28;19937;-63
2022/01/09 08:40:24;;;;;;;;;;;;;;;-144.99;100.00;52711.03;4965112;28;19927;-63
2022/01/09 08:45:19;;;;;;;;;;;;;;;-144.99;100.00;52690.66;4946159;28;19933;-63
2022/01/09 08:47:45;;;;;;;;;;;;;;;-144.99;100.00;52717.16;4951400;28;19938;-62
2022/01/09 08:50:13;;;;;;;;;;;;;;;-144.99;100.00;52680.47;4949305;28;19934;-62
2022/01/09 08:52:40;;;;;;;;;;;;;;;-144.99;100.00;52680.47;4950125;28;20333;-68
2022/01/09 08:55:08;;;;;;;;;;;;;;;-144.99;100.00;52676.38;4949888;28;19926;-69
2022/01/09 08:57:34;;;;;;;;;;;;;;;-144.99;100.00;52688.63;4948529;28;19964;-69
2022/01/09 09:00:00;;;;;;;;;;;;;;;-144.99;100.00;52688.63;4951332;28;19926;-67
2022/01/09 09:02:27;;;;;;;;;;;;;;;-144.99;100.00;52690.66;4951017;28;19927;-67
2022/01/09 09:04:53;;;;;;;;;;;;;;;-144.99;100.00;52700.84;4949592;29;19931;-67
2022/01/09 09:07:23;;;;;;;;;;;;;;;-144.99;100.00;52658.03;4949224;28;19933;-66
2022/01/09 09:09:50;;;;;;;;;;;;;;;-144.99;100.00;52660.09;4949494;28;19980;-66
2022/01/09 09:12:17;;;;;;;;;;;;;;;-144.99;100.00;52717.16;4949680;28;19927;-68
2022/01/09 09:14:44;;;;;;;;;;;;;;;-144.99;100.00;52700.84;4951475;28;19927;-66
2022/01/09 09:17:10;;;;;;;;;;;;;;;-144.99;100.00;52674.34;4954676;28;20291;-67
2022/01/09 09:19:36;;;;;;;;;;;;;;;-144.99;100.00;52664.16;4953942;28;19926;-68
2022/01/09 09:22:03;;;;;;;;;;;;;;;-144.99;100.00;52676.38;4950564;28;20346;-69
2022/01/09 09:24:29;;;;;;;;;;;;;;;-144.99;100.00;52709.00;4950626;28;19938;-67
2022/01/09 09:26:56;;;;;;;;;;;;;;;-144.99;100.00;52688.63;4951851;28;19976;-68
2022/01/09 09:29:23;;;;;;;;;;;;;;;-144.99;100.00;52696.78;4953658;28;19927;-67
2022/01/09 09:31:50;;;;;;;;;;;;;;;-144.99;100.00;52713.09;4954140;28;19927;-67
2022/01/09 09:34:16;;;;;;;;;;;;;;;-144.99;100.00;52684.53;4952869;28;20005;-67
2022/01/09 09:36:42;;;;;;;;;;;;;;;-144.99;100.00;52676.38;4947262;28;19933;-67
2022/01/09 09:39:09;;;;;;;;;;;;;;;-144.99;100.00;52688.63;4953371;28;19935;-68
2022/01/09 09:41:35;;;;;;;;;;;;;;;-144.99;100.00;52711.03;4954587;28;20099;-68
2022/01/09 09:44:02;;;;;;;;;;;;;;;-144.99;100.00;52713.09;4949529;28;19927;-67
2022/01/09 09:46:30;;;;;;;;;;;;;;;-144.99;100.00;52627.47;4949460;28;19930;-67
2022/01/09 09:48:56;;;;;;;;;;;;;;;-144.99;100.00;52688.63;4946353;28;19938;-67
2022/01/09 09:51:31;;;;;;;;;;;;;;;-144.99;100.00;52706.97;4948598;28;19961;-67
2022/01/09 09:53:58;;;;;;;;;;;;;;;-144.99;100.00;52700.84;4947595;28;19927;-68
2022/01/09 09:56:25;;;;;;;;;;;;;;;-144.99;100.00;52668.22;4947547;28;19930;-69
2022/01/09 09:58:51;;;;;;;;;;;;;;;-144.99;100.00;52676.38;4947908;28;20406;-67
2022/01/09 10:01:25;;;;;;;;;;;;;;;-144.99;100.00;52656.00;4948297;28;19966;-67
2022/01/09 10:03:56;;;;;;;;;;;;;;;-144.99;100.00;52670.28;4946623;28;19930;-66
2022/01/09 10:06:36;;;;;;;;;;;;;;;-144.99;100.00;52709.00;4947930;28;19926;-67
2022/01/09 10:09:06;;;;;;;;;;;;;;;-144.99;100.00;52698.81;4945164;28;19931;-66
2022/01/09 10:11:40;;;;;;;;;;;;;;;-144.99;100.00;52664.16;4942454;28;19938;-68
2022/01/09 10:14:11;;;;;;;;;;;;;;;-144.99;100.00;52725.31;4946485;28;20315;-68
2022/01/09 10:16:37;;;;;;;;;;;;;;;-144.99;100.00;52664.16;4948622;28;19926;-67
2022/01/09 10:19:05;;;;;;;;;;;;;;;-144.99;100.00;52680.47;4948819;28;19941;-67
2022/01/09 10:21:31;;;;;;;;;;;;;;;-144.99;100.00;52723.28;4949176;28;20311;-67
2022/01/09 10:23:59;;;;;;;;;;;;;;;-144.99;100.00;52676.38;4948614;28;19931;-66
2022/01/09 10:26:25;;;;;;;;;;;;;;;-144.99;100.00;52717.16;4947722;28;19933;-66
2022/01/09 10:28:52;;;;;;;;;;;;;;;-144.99;100.00;52700.84;4946691;28;20395;-67
2022/01/09 10:31:19;;;;;;;;;;;;;;;-144.99;100.00;52668.22;4952287;28;19934;-66
2022/01/09 10:34:02;;;;;;;;;;;;;;;-144.99;100.00;52709.00;4947638;28;19927;-67
2022/01/09 10:36:33;;;;;;;;;;;;;;;-144.99;100.00;52643.78;4945359;28;19926;-67
2022/01/09 10:39:03;;;;;;;;;;;;;;;-144.99;100.00;52670.28;4946097;28;20290;-68
2022/01/09 10:41:44;;;;;;;;;;;;;;;-144.99;100.00;52684.53;4946354;28;20418;-67
2022/01/09 10:44:13;;;;;;;;;;;;;;;-144.99;100.00;52662.13;4945950;28;19926;-67
2022/01/09 10:46:40;;;;;;;;;;;;;;;-144.99;100.00;52688.63;4946360;29;19938;-67
2022/01/09 10:49:06;;;;;;;;;;;;;;;-144.99;100.00;52700.84;4946449;28;19926;-68
2022/01/09 10:51:34;;;;;;;;;;;;;;;-144.99;100.00;52676.38;4945346;28;19956;-67
2022/01/09 10:54:01;;;;;;;;;;;;;;;-144.99;100.00;52658.03;4945393;28;19934;-67
2022/01/09 10:56:28;;;;;;;;;;;;;;;-144.99;100.00;52692.69;4946587;28;19937;-68
2022/01/09 10:58:56;;;;;;;;;;;;;;;-144.99;100.00;52676.38;4949925;28;19935;-67
2022/01/09 11:01:23;;;;;;;;;;;;;;;-144.99;100.00;52668.22;4949705;28;20227;-67
2022/01/09 11:03:51;;;;;;;;;;;;;;;-144.99;100.00;52704.94;4948586;28;19933;-68
2022/01/09 11:06:18;;;;;;;;;;;;;;;-144.99;100.00;52688.63;4948881;29;20414;-67
2022/01/09 11:08:46;;;;;;;;;;;;;;;-144.99;100.00;52647.84;4948611;29;19930;-69
2022/01/09 11:11:18;;;;;;;;;;;;;;;-144.99;100.00;52643.78;4949605;28;20056;-68
2022/01/09 11:13:45;;;;;;;;;;;;;;;-144.99;100.00;52676.38;4948705;28;19930;-68
2022/01/09 11:18:57;;;;;;;;;;;;;;;-144.99;100.00;52668.22;4948918;28;19938;-67
2022/01/09 11:21:24;;;;;;;;;;;;;;;-144.99;100.00;52686.59;4948782;28;20371;-67
2022/01/09 11:23:56;;;;;;;;;;;;;;;-144.99;100.00;52664.16;4948401;28;19926;-67
2022/01/09 11:26:27;;;;;;;;;;;;;;;-144.99;100.00;52647.84;4949166;28;20398;-69
2022/01/09 11:28:55;;;;;;;;;;;;;;;-144.99;100.00;52672.31;4948968;28;19959;-68
2022/01/09 11:31:27;;;;;;;;;;;;;;;-144.99;100.00;52660.09;4943489;28;19930;-67
2022/01/09 11:33:57;;;;;;;;;;;;;;;-144.99;100.00;52660.09;4945724;28;19926;-67
2022/01/09 11:36:28;;;;;;;;;;;;;;;-144.99;100.00;52692.69;4948187;28;20378;-67
2022/01/09 11:39:00;;;;;;;;;;;;;;;-144.99;100.00;52643.78;4948534;29;19936;-68
2022/01/09 11:41:27;;;;;;;;;;;;;;;-144.99;100.00;52668.22;4948664;28;20248;-68
2022/01/09 11:43:57;;;;;;;;;;;;;;;-144.99;100.00;52680.47;4948531;28;20009;-67
2022/01/09 11:46:24;;;;;;;;;;;;;;;-144.99;100.00;52668.22;4949064;28;20021;-68
2022/01/09 11:49:01;;;;;;;;;;;;;;;-144.99;100.00;52662.13;4948665;28;20490;-68
2022/01/09 11:51:28;;;;;;;;;;;;;;;-144.99;100.00;52656.00;4947725;28;20296;-69
2022/01/09 11:54:06;;;;;;;;;;;;;;;-144.99;100.00;52670.28;4944311;28;19934;-66
2022/01/09 11:57:03;;;;;;;;;;;;;;;-144.99;100.00;52647.84;4945977;28;20413;-67
2022/01/09 11:59:30;;;;;;;;;;;;;;;-144.99;100.00;52605.03;4949113;29;19930;-67
2022/01/09 12:01:59;;;;;;;;;;;;;;;-144.99;100.00;52619.31;4949281;28;19938;-70
2022/01/09 12:04:45;;;;;;;;;;;;;;;-144.99;100.00;52678.44;4948132;29;20121;-68
2022/01/09 12:07:12;;;;;;;;;;;;;;;-144.99;100.00;52664.16;4948067;29;19984;-67
2022/01/09 12:09:41;;;;;;;;;;;;;;;-144.99;100.00;52688.63;4946960;28;19934;-68
2022/01/09 12:12:09;;;;;;;;;;;;;;;-144.99;100.00;52668.22;4948679;28;19930;-68
2022/01/09 12:14:56;;;;;;;;;;;;;;;-144.99;100.00;52660.09;4947996;28;19989;-69
2022/01/09 12:17:39;;;;;;;;;;;;;;;-144.99;100.00;52666.19;4947177;28;19930;-68
2022/01/09 12:20:08;;;;;;;;;;;;;;;-144.99;100.00;52656.00;4947982;29;19930;-68
2022/01/09 12:23:01;;;;;;;;;;;;;;;-144.99;100.00;52639.69;4947863;28;19981;-71
2022/01/09 12:25:51;;;;;;;;;;;;;;;-144.99;100.00;52643.78;4941379;28;20511;-67